createdAt,value
2023-01-31T00:01:29.906Z,10.55
2023-01-31T00:03:59.132Z,7.45
2023-01-31T00:06:28.465Z,10.40
2023-01-31T00:08:56.873Z,14.88
2023-01-31T00:11:26.448Z,11.85
2023-01-31T00:13:54.778Z,6.90
2023-01-31T00:16:23.453Z,10.23
2023-01-31T00:18:52.308Z,11.13
2023-01-31T00:21:21.642Z,7.88
2023-01-31T00:23:50.538Z,9.82
2023-01-31T00:26:20.529Z,7.88
2023-01-31T00:28:49.887Z,12.98
2023-01-31T00:31:20.534Z,9.05
2023-01-31T00:33:52.747Z,12.43
2023-01-31T00:36:25.408Z,8.98
2023-01-31T00:38:55.056Z,11.85
2023-01-31T00:41:24.461Z,10.43
2023-01-31T00:43:52.424Z,12.15
2023-01-31T00:46:20.515Z,10.77
2023-01-31T00:48:48.630Z,9.20
2023-01-31T00:51:18.233Z,14.93
2023-01-31T00:53:46.118Z,13.77
2023-01-31T00:56:16.449Z,9.18
2023-01-31T00:58:44.118Z,16.33
2023-01-31T01:01:16.936Z,17.52
2023-01-31T01:03:49.284Z,11.85
2023-01-31T01:06:20.816Z,12.20
2023-01-31T01:08:49.035Z,14.63
2023-01-31T01:11:20.304Z,16.10
2023-01-31T01:13:48.063Z,12.88
2023-01-31T01:16:17.604Z,8.40
2023-01-31T01:18:49.190Z,9.60
2023-01-31T01:21:20.311Z,8.25
2023-01-31T01:23:48.209Z,9.85
2023-01-31T01:26:17.519Z,13.00
2023-01-31T01:28:45.457Z,11.65
2023-01-31T01:31:16.191Z,18.25
2023-01-31T01:33:44.963Z,10.77
2023-01-31T01:36:17.232Z,9.88
2023-01-31T01:38:46.859Z,13.75
2023-01-31T01:41:15.385Z,7.05
2023-01-31T01:43:48.546Z,11.02
2023-01-31T01:46:21.198Z,12.15
2023-01-31T01:48:52.101Z,10.50
2023-01-31T01:51:21.064Z,7.60
2023-01-31T01:53:55.408Z,13.68
2023-01-31T01:56:29.291Z,16.17
2023-01-31T01:59:02.068Z,11.82
2023-01-31T02:01:33.206Z,9.57
2023-01-31T02:04:00.758Z,11.25
2023-01-31T02:06:32.038Z,6.88
2023-01-31T02:09:01.115Z,13.57
2023-01-31T02:11:31.117Z,8.05
2023-01-31T02:14:02.401Z,8.80
2023-01-31T02:16:30.486Z,7.22
2023-01-31T02:18:59.037Z,12.63
2023-01-31T02:21:49.683Z,13.07
2023-01-31T02:25:02.283Z,14.80
2023-01-31T02:27:41.627Z,11.20
2023-01-31T02:30:35.654Z,10.15
2023-01-31T02:33:19.908Z,9.80
2023-01-31T02:35:59.321Z,15.63
2023-01-31T02:38:43.218Z,8.82
2023-01-31T02:41:17.944Z,16.20
2023-01-31T02:44:12.222Z,9.90
2023-01-31T02:46:50.496Z,12.40
2023-01-31T02:49:35.338Z,8.27
2023-01-31T02:52:21.956Z,11.13
2023-01-31T02:55:19.404Z,11.75
2023-01-31T02:57:50.200Z,11.27
2023-01-31T03:00:19.741Z,8.77
2023-01-31T03:02:47.379Z,10.57
2023-01-31T03:05:18.408Z,10.43
2023-01-31T03:07:51.248Z,9.85
2023-01-31T03:10:36.476Z,9.82
2023-01-31T03:13:20.866Z,5.93
2023-01-31T03:16:17.851Z,9.25
2023-01-31T03:18:50.363Z,10.20
2023-01-31T03:21:24.440Z,9.82
2023-01-31T03:23:54.594Z,16.27
2023-01-31T03:26:23.528Z,9.98
2023-01-31T03:28:57.059Z,14.48
2023-01-31T03:31:30.335Z,10.82
2023-01-31T03:34:01.552Z,7.40
2023-01-31T03:36:36.620Z,9.30
2023-01-31T03:39:29.432Z,9.63
2023-01-31T03:42:07.334Z,12.18
2023-01-31T03:44:41.876Z,11.10
2023-01-31T03:47:17.252Z,7.82
2023-01-31T03:49:47.415Z,8.85
2023-01-31T03:52:23.663Z,10.68
2023-01-31T03:54:57.316Z,10.40
2023-01-31T03:57:29.942Z,9.77
2023-01-31T04:00:00.694Z,12.57
2023-01-31T04:02:34.091Z,12.27
2023-01-31T04:05:07.584Z,17.83
2023-01-31T04:07:38.549Z,16.13
2023-01-31T04:10:13.064Z,14.55
2023-01-31T04:12:40.815Z,8.02
2023-01-31T04:15:09.729Z,15.23
2023-01-31T04:17:37.297Z,7.95
2023-01-31T04:20:05.858Z,7.15
2023-01-31T04:22:33.633Z,13.63
2023-01-31T04:25:02.660Z,12.35
2023-01-31T04:27:30.308Z,12.63
2023-01-31T04:29:57.930Z,17.30
2023-01-31T04:32:25.628Z,13.50
2023-01-31T04:34:53.171Z,16.83
2023-01-31T04:37:20.660Z,15.77
2023-01-31T04:39:48.139Z,13.93
2023-01-31T04:42:16.981Z,16.02
2023-01-31T04:44:44.679Z,15.10
2023-01-31T04:47:12.208Z,15.48
2023-01-31T04:49:39.805Z,11.65
2023-01-31T04:52:07.462Z,8.40
2023-01-31T04:54:35.383Z,11.65
2023-01-31T04:57:03.203Z,16.25
2023-01-31T04:59:32.503Z,17.70
2023-01-31T05:02:00.351Z,11.07
2023-01-31T05:04:27.962Z,10.73
2023-01-31T05:06:55.553Z,13.20
2023-01-31T05:09:23.110Z,11.40
2023-01-31T05:11:50.794Z,8.60
2023-01-31T05:14:20.956Z,10.85
2023-01-31T05:16:49.917Z,14.10
2023-01-31T05:19:17.582Z,13.32
2023-01-31T05:21:59.016Z,15.52
2023-01-31T05:24:29.176Z,12.98
2023-01-31T05:26:58.594Z,20.20
2023-01-31T05:29:27.027Z,14.50
2023-01-31T05:31:58.297Z,11.07
2023-01-31T05:34:28.593Z,14.70
2023-01-31T05:36:56.410Z,15.82
2023-01-31T05:39:23.973Z,12.18
2023-01-31T05:41:52.703Z,10.00
2023-01-31T05:44:20.483Z,14.57
2023-01-31T05:46:48.439Z,14.20
2023-01-31T05:49:17.423Z,13.50
2023-01-31T05:51:45.032Z,20.00
2023-01-31T05:54:13.241Z,13.80
2023-01-31T05:56:40.863Z,15.70
2023-01-31T05:59:08.448Z,11.75
2023-01-31T06:01:35.960Z,17.42
2023-01-31T06:04:03.589Z,14.27
2023-01-31T06:06:32.511Z,15.68
2023-01-31T06:09:00.262Z,16.40
2023-01-31T06:11:27.951Z,16.85
2023-01-31T06:13:57.611Z,17.88
2023-01-31T06:16:25.577Z,15.07
2023-01-31T06:18:53.170Z,11.73
2023-01-31T06:21:20.666Z,18.73
2023-01-31T06:23:49.607Z,20.83
2023-01-31T06:26:17.248Z,21.67
2023-01-31T06:28:46.291Z,13.98
2023-01-31T06:31:14.407Z,10.85
2023-01-31T06:33:47.217Z,15.93
2023-01-31T06:36:18.416Z,12.90
2023-01-31T06:38:51.423Z,13.95
2023-01-31T06:41:19.327Z,18.65
2023-01-31T06:43:46.940Z,11.60
2023-01-31T06:46:14.729Z,9.38
2023-01-31T06:48:42.331Z,10.32
2023-01-31T06:51:09.838Z,11.52
2023-01-31T06:53:37.445Z,10.38
2023-01-31T06:56:07.455Z,16.00
2023-01-31T06:58:35.317Z,11.13
2023-01-31T07:01:06.048Z,8.57
2023-01-31T07:03:33.653Z,7.22
2023-01-31T07:06:01.365Z,15.05
2023-01-31T07:08:29.243Z,19.10
2023-01-31T07:10:57.096Z,8.90
2023-01-31T07:13:26.346Z,14.38
2023-01-31T07:15:53.969Z,11.57
2023-01-31T07:18:21.659Z,12.70
2023-01-31T07:20:49.263Z,11.60
2023-01-31T07:23:17.233Z,13.82
2023-01-31T07:25:44.794Z,12.30
2023-01-31T07:28:12.975Z,11.32
2023-01-31T07:30:43.744Z,10.45
2023-01-31T07:33:11.902Z,17.25
2023-01-31T07:35:39.551Z,9.05
2023-01-31T07:38:07.074Z,17.75
2023-01-31T07:40:34.729Z,14.27
2023-01-31T07:43:02.365Z,10.30
2023-01-31T07:45:29.927Z,15.85
2023-01-31T07:47:59.937Z,11.85
2023-01-31T07:50:28.021Z,13.10
2023-01-31T07:52:57.932Z,8.68
2023-01-31T07:55:25.468Z,7.78
2023-01-31T07:57:52.980Z,15.40
2023-01-31T08:00:39.219Z,14.30
2023-01-31T08:03:34.467Z,17.00
2023-01-31T08:06:04.588Z,13.65
2023-01-31T08:08:32.750Z,9.38
2023-01-31T08:11:00.642Z,12.70
2023-01-31T08:13:28.192Z,18.30
2023-01-31T08:15:55.689Z,14.50
2023-01-31T08:18:24.638Z,18.63
2023-01-31T08:20:52.221Z,14.02
2023-01-31T08:23:19.889Z,17.05
2023-01-31T08:25:47.408Z,15.75
2023-01-31T08:28:15.283Z,13.98
2023-01-31T08:30:46.501Z,15.30
2023-01-31T08:33:17.873Z,16.23
2023-01-31T08:35:46.769Z,23.15
2023-01-31T08:38:16.698Z,16.08
2023-01-31T08:40:44.831Z,16.67
2023-01-31T08:43:12.463Z,17.00
2023-01-31T08:45:39.979Z,12.70
2023-01-31T08:48:07.653Z,10.98
2023-01-31T08:50:35.542Z,12.85
2023-01-31T08:53:06.240Z,12.88
2023-01-31T08:55:36.631Z,12.38
2023-01-31T08:58:04.218Z,14.23
2023-01-31T09:00:32.391Z,12.85
2023-01-31T09:03:01.533Z,18.08
2023-01-31T09:05:30.480Z,17.50
2023-01-31T09:07:58.156Z,16.92
2023-01-31T09:10:27.156Z,17.13
2023-01-31T09:12:54.776Z,18.50
2023-01-31T09:15:22.750Z,17.15
2023-01-31T09:17:50.457Z,15.85
2023-01-31T09:20:18.548Z,9.10
2023-01-31T09:22:46.340Z,9.73
2023-01-31T09:25:13.927Z,21.02
2023-01-31T09:27:42.866Z,18.30
2023-01-31T09:30:12.188Z,16.55
2023-01-31T09:32:41.342Z,14.13
2023-01-31T09:35:09.794Z,13.52
2023-01-31T09:37:37.698Z,26.10
2023-01-31T09:40:05.800Z,15.30
2023-01-31T09:42:37.632Z,14.32
2023-01-31T09:45:13.314Z,15.45
2023-01-31T09:47:46.312Z,13.15
2023-01-31T09:50:20.655Z,12.77
2023-01-31T09:52:48.830Z,13.05
2023-01-31T09:55:17.888Z,12.45
2023-01-31T09:57:53.691Z,10.85
2023-01-31T10:00:29.214Z,11.38
2023-01-31T10:03:22.843Z,13.20
2023-01-31T10:05:53.862Z,14.43
2023-01-31T10:08:31.780Z,12.10
2023-01-31T10:11:02.178Z,18.70
2023-01-31T10:13:36.882Z,10.23
2023-01-31T10:16:14.736Z,15.10
2023-01-31T10:18:45.684Z,11.05
2023-01-31T10:21:17.649Z,13.52
2023-01-31T10:23:50.801Z,10.50
2023-01-31T10:26:24.643Z,14.73
2023-01-31T10:28:59.954Z,15.80
2023-01-31T10:31:33.673Z,13.35
2023-01-31T10:34:04.711Z,12.02
2023-01-31T10:36:35.681Z,13.88
2023-01-31T10:39:07.693Z,11.45
2023-01-31T10:41:52.494Z,15.32
2023-01-31T10:44:26.387Z,21.55
2023-01-31T10:46:57.792Z,17.90
2023-01-31T10:49:27.239Z,19.92
2023-01-31T10:52:08.892Z,14.32
2023-01-31T10:54:48.870Z,16.80
2023-01-31T10:57:18.058Z,16.92
2023-01-31T10:59:47.931Z,16.05
2023-01-31T11:02:23.488Z,18.70
2023-01-31T11:04:53.044Z,18.10
2023-01-31T11:07:21.120Z,12.77
2023-01-31T11:09:53.926Z,12.60
2023-01-31T11:12:22.667Z,11.52
2023-01-31T11:15:07.599Z,12.63
2023-01-31T11:17:38.450Z,13.02
2023-01-31T11:20:07.840Z,14.45
2023-01-31T11:22:38.555Z,11.43
2023-01-31T11:25:07.744Z,15.27
2023-01-31T11:27:40.505Z,14.73
2023-01-31T11:30:22.504Z,16.02
2023-01-31T11:32:51.824Z,12.68
2023-01-31T11:35:29.189Z,17.05
2023-01-31T11:37:58.665Z,14.13
2023-01-31T11:40:32.219Z,17.23
2023-01-31T11:43:01.866Z,12.88
2023-01-31T11:45:32.337Z,13.30
2023-01-31T11:48:08.671Z,17.60
2023-01-31T11:50:39.456Z,12.98
2023-01-31T11:53:18.152Z,14.85
2023-01-31T11:55:46.830Z,13.00
2023-01-31T11:58:19.681Z,11.57
2023-01-31T12:00:55.230Z,13.90
2023-01-31T12:03:24.650Z,14.40
2023-01-31T12:06:00.886Z,10.68
2023-01-31T12:08:34.034Z,10.20
2023-01-31T12:11:05.868Z,8.98
2023-01-31T12:13:46.915Z,10.90
2023-01-31T12:16:15.369Z,6.75
2023-01-31T12:19:00.616Z,9.95
2023-01-31T12:21:50.254Z,8.40
2023-01-31T12:24:30.845Z,9.73
2023-01-31T12:27:05.098Z,6.63
2023-01-31T12:29:51.510Z,10.98
2023-01-31T12:32:33.925Z,10.02
2023-01-31T12:35:25.363Z,9.02
2023-01-31T12:38:06.402Z,8.68
2023-01-31T12:40:40.648Z,6.88
2023-01-31T12:43:22.331Z,8.05
2023-01-31T12:46:09.510Z,5.60
2023-01-31T12:48:47.727Z,4.82
2023-01-31T12:51:29.624Z,6.18
2023-01-31T12:54:11.030Z,6.00
2023-01-31T12:56:52.700Z,3.42
2023-01-31T12:59:46.487Z,4.55
2023-01-31T13:02:28.450Z,6.43
2023-01-31T13:05:01.244Z,4.40
2023-01-31T13:07:33.326Z,4.47
2023-01-31T13:10:03.976Z,1.65
2023-01-31T13:12:34.884Z,3.97
2023-01-31T13:15:06.614Z,4.55
2023-01-31T13:17:38.958Z,3.55
2023-01-31T13:20:22.320Z,5.10
2023-01-31T13:22:54.284Z,3.10
2023-01-31T13:25:25.390Z,3.58
2023-01-31T13:27:59.534Z,2.58
2023-01-31T13:30:36.799Z,5.55
2023-01-31T13:33:24.702Z,5.55
2023-01-31T13:36:00.849Z,2.55
2023-01-31T13:38:37.117Z,4.18
2023-01-31T13:41:06.884Z,5.10
2023-01-31T13:43:34.953Z,5.75
2023-01-31T13:46:06.236Z,5.72
2023-01-31T13:48:38.644Z,8.50
2023-01-31T13:51:11.476Z,7.32
2023-01-31T13:53:46.098Z,5.18
2023-01-31T13:56:22.406Z,8.45
2023-01-31T13:58:52.384Z,7.40
2023-01-31T14:01:23.823Z,9.07
2023-01-31T14:04:24.938Z,8.35
2023-01-31T14:07:11.235Z,8.85
2023-01-31T14:09:43.405Z,6.57
2023-01-31T14:12:34.540Z,4.53
2023-01-31T14:15:03.443Z,4.97
2023-01-31T14:18:01.069Z,7.07
2023-01-31T14:20:32.082Z,7.60
2023-01-31T14:23:30.767Z,16.23
2023-01-31T14:25:59.716Z,7.55
2023-01-31T14:28:28.065Z,6.72
2023-01-31T14:30:56.688Z,9.18
2023-01-31T14:33:29.589Z,7.35
2023-01-31T14:36:25.321Z,7.50
2023-01-31T14:39:17.661Z,10.63
2023-01-31T14:42:11.911Z,7.63
2023-01-31T14:44:51.109Z,9.50
2023-01-31T14:47:34.169Z,8.35
2023-01-31T14:50:17.173Z,13.82
2023-01-31T14:53:00.670Z,7.55
2023-01-31T14:55:40.596Z,8.13
2023-01-31T14:58:16.471Z,7.05
2023-01-31T15:00:50.018Z,10.55
2023-01-31T15:03:21.605Z,9.25
2023-01-31T15:05:51.662Z,13.52
2023-01-31T15:08:42.354Z,14.80
2023-01-31T15:11:40.979Z,20.40
2023-01-31T15:14:41.902Z,13.55
2023-01-31T15:17:32.102Z,14.57
2023-01-31T15:20:14.710Z,12.95
2023-01-31T15:22:43.485Z,20.08
2023-01-31T15:25:24.338Z,18.95
2023-01-31T15:27:52.978Z,19.52
2023-01-31T15:30:23.480Z,14.90
2023-01-31T15:32:54.341Z,20.75
2023-01-31T15:35:26.444Z,18.63
2023-01-31T15:38:01.592Z,16.20
2023-01-31T15:40:30.795Z,17.17
2023-01-31T15:43:16.395Z,17.63
2023-01-31T15:45:45.484Z,20.00
2023-01-31T15:48:15.338Z,19.85
2023-01-31T15:50:50.511Z,24.30
2023-01-31T15:53:19.585Z,17.27
2023-01-31T15:55:49.054Z,17.90
2023-01-31T15:58:20.073Z,22.63
2023-01-31T16:00:52.373Z,20.95
2023-01-31T16:03:23.120Z,21.17
2023-01-31T16:05:53.291Z,19.67
2023-01-31T16:08:26.792Z,26.20
2023-01-31T16:10:54.663Z,16.13
2023-01-31T16:13:23.237Z,15.85
2023-01-31T16:15:52.367Z,49.45
2023-01-31T16:18:20.305Z,10.43
2023-01-31T16:20:49.652Z,10.00
2023-01-31T16:23:29.833Z,7.65
2023-01-31T16:26:04.473Z,11.13
2023-01-31T16:28:38.689Z,12.05
2023-01-31T16:31:10.190Z,10.80
2023-01-31T16:33:38.918Z,6.95
2023-01-31T16:36:14.362Z,8.40
2023-01-31T16:38:55.958Z,7.93
2023-01-31T16:41:39.684Z,7.60
2023-01-31T16:44:07.377Z,12.55
2023-01-31T16:46:41.401Z,9.25
2023-01-31T16:49:21.829Z,12.68
2023-01-31T16:51:50.725Z,21.75
2023-01-31T16:54:21.825Z,15.52
2023-01-31T16:57:06.985Z,11.00
2023-01-31T16:59:45.946Z,16.45
2023-01-31T17:02:19.943Z,11.75
2023-01-31T17:04:49.507Z,16.50
2023-01-31T17:07:19.805Z,17.63
2023-01-31T17:09:48.502Z,22.20
2023-01-31T17:12:23.067Z,23.25
2023-01-31T17:14:52.881Z,26.02
2023-01-31T17:17:22.394Z,15.80
2023-01-31T17:19:49.910Z,20.27
2023-01-31T17:22:17.557Z,22.85
2023-01-31T17:24:46.756Z,23.15
2023-01-31T17:27:15.731Z,28.50
2023-01-31T17:29:43.553Z,21.83
2023-01-31T17:32:15.380Z,18.13
2023-01-31T17:34:45.725Z,27.00
2023-01-31T17:37:16.096Z,25.60
2023-01-31T17:39:44.151Z,19.27
2023-01-31T17:42:17.468Z,20.13
2023-01-31T17:44:45.471Z,25.73
2023-01-31T17:47:13.753Z,16.52
2023-01-31T17:49:41.372Z,26.50
2023-01-31T17:52:10.244Z,19.75
2023-01-31T17:54:37.987Z,39.95
2023-01-31T17:57:05.686Z,23.70
2023-01-31T17:59:33.279Z,30.40
2023-01-31T18:02:02.483Z,31.20
2023-01-31T18:04:30.158Z,28.02
2023-01-31T18:06:57.826Z,26.00
2023-01-31T18:09:26.860Z,28.63
2023-01-31T18:11:54.425Z,24.50
2023-01-31T18:14:22.049Z,23.92
2023-01-31T18:16:50.231Z,25.60
2023-01-31T18:19:17.845Z,23.17
2023-01-31T18:21:54.370Z,23.15
2023-01-31T18:24:22.844Z,28.58
2023-01-31T18:26:52.295Z,20.60
2023-01-31T18:29:20.826Z,25.27
2023-01-31T18:31:48.646Z,16.75
2023-01-31T18:34:16.883Z,23.13
2023-01-31T18:36:44.503Z,25.27
2023-01-31T18:39:12.086Z,27.98
2023-01-31T18:41:39.661Z,31.83
2023-01-31T18:44:08.839Z,24.83
2023-01-31T18:46:36.593Z,23.38
2023-01-31T18:49:04.202Z,23.95
2023-01-31T18:51:31.980Z,22.15
2023-01-31T18:53:59.734Z,24.85
2023-01-31T18:56:27.535Z,22.55
2023-01-31T18:58:55.351Z,32.60
2023-01-31T19:01:26.362Z,27.25
2023-01-31T19:03:56.685Z,21.77
2023-01-31T19:06:26.761Z,20.92
2023-01-31T19:08:56.392Z,23.88
2023-01-31T19:11:26.240Z,22.27
2023-01-31T19:13:54.299Z,26.83
2023-01-31T19:16:25.065Z,20.02
2023-01-31T19:18:53.273Z,17.80
2023-01-31T19:21:23.084Z,28.45
2023-01-31T19:23:52.016Z,17.15
2023-01-31T19:26:19.926Z,15.70
2023-01-31T19:28:48.498Z,18.75
2023-01-31T19:31:17.891Z,22.55
2023-01-31T19:33:50.588Z,19.73
2023-01-31T19:36:20.299Z,16.33
2023-01-31T19:38:48.329Z,21.38
2023-01-31T19:41:19.007Z,23.98
2023-01-31T19:43:46.931Z,30.13
2023-01-31T19:46:14.623Z,27.52
2023-01-31T19:48:42.318Z,26.33
2023-01-31T19:51:13.599Z,22.75
2023-01-31T19:53:42.188Z,18.40
2023-01-31T19:56:10.365Z,18.42
2023-01-31T19:58:38.529Z,21.33
2023-01-31T20:01:07.615Z,19.90
2023-01-31T20:03:35.608Z,19.80
2023-01-31T20:06:05.154Z,19.75
2023-01-31T20:08:34.379Z,23.88
2023-01-31T20:11:02.393Z,21.20
2023-01-31T20:13:29.962Z,19.95
2023-01-31T20:15:58.864Z,19.65
2023-01-31T20:18:26.615Z,17.52
2023-01-31T20:20:55.100Z,23.00
2023-01-31T20:23:22.866Z,27.40
2023-01-31T20:25:52.885Z,21.88
2023-01-31T20:28:21.168Z,26.20
2023-01-31T20:30:49.325Z,19.92
2023-01-31T20:33:17.752Z,23.77
2023-01-31T20:35:46.088Z,21.73
2023-01-31T20:38:15.599Z,21.55
2023-01-31T20:40:49.056Z,23.85
2023-01-31T20:43:18.233Z,27.33
2023-01-31T20:45:46.307Z,22.13
2023-01-31T20:48:14.614Z,26.92
2023-01-31T20:50:42.177Z,23.15
2023-01-31T20:53:21.382Z,24.08
2023-01-31T20:55:55.260Z,20.50
2023-01-31T20:58:24.841Z,17.95
2023-01-31T21:00:54.373Z,14.77
2023-01-31T21:03:22.475Z,12.50
2023-01-31T21:05:50.225Z,17.10
2023-01-31T21:08:18.287Z,16.48
2023-01-31T21:10:50.073Z,31.67
2023-01-31T21:13:20.271Z,24.58
2023-01-31T21:15:51.918Z,27.33
2023-01-31T21:18:20.088Z,22.33
2023-01-31T21:20:48.087Z,27.52
2023-01-31T21:23:15.672Z,18.02
2023-01-31T21:25:43.297Z,20.75
2023-01-31T21:28:10.869Z,31.65
2023-01-31T21:30:38.987Z,18.73
2023-01-31T21:33:07.934Z,17.55
2023-01-31T21:35:35.663Z,21.40
2023-01-31T21:38:03.203Z,23.35
2023-01-31T21:40:30.780Z,18.00
2023-01-31T21:42:57.306Z,16.67
2023-01-31T21:45:38.984Z,16.48
2023-01-31T21:48:27.419Z,16.13
2023-01-31T21:50:56.508Z,23.20
2023-01-31T21:53:24.029Z,13.93
2023-01-31T21:55:51.624Z,23.98
2023-01-31T21:58:20.833Z,27.52
2023-01-31T22:00:48.411Z,19.20
2023-01-31T22:03:17.497Z,20.55
2023-01-31T22:05:47.686Z,19.00
2023-01-31T22:08:15.797Z,20.38
2023-01-31T22:10:43.433Z,21.08
2023-01-31T22:13:11.075Z,18.00
2023-01-31T22:15:38.673Z,20.38
2023-01-31T22:18:06.368Z,26.08
2023-01-31T22:20:35.205Z,25.05
2023-01-31T22:23:02.828Z,23.20
2023-01-31T22:25:30.350Z,21.25
2023-01-31T22:27:57.878Z,21.27
2023-01-31T22:30:25.436Z,21.73
2023-01-31T22:32:53.033Z,16.83
2023-01-31T22:35:20.628Z,24.17
2023-01-31T22:37:49.589Z,15.45
2023-01-31T22:40:17.743Z,17.75
2023-01-31T22:42:45.390Z,23.08
2023-01-31T22:45:12.942Z,18.55
2023-01-31T22:47:40.489Z,14.13
2023-01-31T22:50:08.823Z,16.67
2023-01-31T22:52:36.409Z,11.65
2023-01-31T22:55:06.861Z,16.90
2023-01-31T22:57:34.424Z,22.85
2023-01-31T23:00:01.925Z,20.20
2023-01-31T23:02:29.657Z,15.75
2023-01-31T23:04:57.319Z,20.50
2023-01-31T23:07:24.991Z,16.23
2023-01-31T23:09:54.399Z,23.13
2023-01-31T23:12:23.580Z,15.30
2023-01-31T23:14:51.242Z,17.80
2023-01-31T23:17:36.675Z,19.15
2023-01-31T23:20:06.270Z,18.13
2023-01-31T23:22:34.192Z,22.33
2023-01-31T23:25:01.763Z,17.83
2023-01-31T23:27:30.732Z,26.73
2023-01-31T23:29:58.313Z,20.35
2023-01-31T23:32:26.036Z,14.77
2023-01-31T23:34:53.921Z,23.23
2023-01-31T23:37:22.306Z,18.38
2023-01-31T23:39:49.941Z,16.17
2023-01-31T23:42:17.855Z,14.00
2023-01-31T23:44:46.885Z,14.27
2023-01-31T23:47:14.500Z,21.33
2023-01-31T23:49:43.132Z,12.68
2023-01-31T23:52:11.028Z,18.88
2023-01-31T23:54:38.685Z,18.08
2023-01-31T23:57:06.374Z,13.45
2023-01-31T23:59:34.966Z,16.30
